createdAt,value
2019-01-23T00:02:31.245Z,44.13
2019-01-23T00:05:02.830Z,41.33
2019-01-23T00:07:35.285Z,41.57
2019-01-23T00:10:07.926Z,45.13
2019-01-23T00:12:39.032Z,48.63
2019-01-23T00:15:11.064Z,46.60
2019-01-23T00:17:42.566Z,46.80
2019-01-23T00:20:14.861Z,45.20
2019-01-23T00:22:47.365Z,46.43
2019-01-23T00:25:19.158Z,44.87
2019-01-23T00:27:50.567Z,40.47
2019-01-23T00:30:22.405Z,43.00
2019-01-23T00:32:54.201Z,41.30
2019-01-23T00:35:26.239Z,40.53
2019-01-23T00:37:58.447Z,39.80
2019-01-23T00:40:30.524Z,40.37
2019-01-23T00:43:01.944Z,40.20
2019-01-23T00:45:33.195Z,35.33
2019-01-23T00:48:05.463Z,36.80
2019-01-23T00:50:37.294Z,34.23
2019-01-23T00:53:10.841Z,37.57
2019-01-23T00:55:42.202Z,36.67
2019-01-23T00:58:13.801Z,34.43
2019-01-23T01:00:45.875Z,34.43
2019-01-23T01:03:17.989Z,33.27
2019-01-23T01:05:49.810Z,33.77
2019-01-23T01:08:21.715Z,32.07
2019-01-23T01:10:53.959Z,35.00
2019-01-23T01:13:25.635Z,35.00
2019-01-23T01:15:57.996Z,34.47
2019-01-23T01:18:29.847Z,35.60
2019-01-23T01:21:05.552Z,35.87
2019-01-23T01:23:36.873Z,33.23
2019-01-23T01:26:08.639Z,36.13
2019-01-23T01:28:39.771Z,34.87
2019-01-23T01:31:12.833Z,36.93
2019-01-23T01:33:45.929Z,36.63
2019-01-23T01:36:18.407Z,37.40
2019-01-23T01:38:50.085Z,35.83
2019-01-23T01:41:20.755Z,36.77
2019-01-23T01:43:52.568Z,38.30
2019-01-23T01:46:24.347Z,37.03
2019-01-23T01:49:00.031Z,36.70
2019-01-23T01:51:31.511Z,35.73
2019-01-23T01:54:03.471Z,37.03
2019-01-23T01:56:34.902Z,36.97
2019-01-23T01:59:05.997Z,35.07
2019-01-23T02:01:37.226Z,37.30
2019-01-23T02:04:08.577Z,37.07
2019-01-23T02:06:39.851Z,39.13
2019-01-23T02:09:11.747Z,38.20
2019-01-23T02:11:43.658Z,38.33
2019-01-23T02:14:16.355Z,38.90
2019-01-23T02:16:49.207Z,40.07
2019-01-23T02:19:20.981Z,38.00
2019-01-23T02:21:52.293Z,38.33
2019-01-23T02:24:24.089Z,38.53
2019-01-23T02:26:56.451Z,38.23
2019-01-23T02:29:29.307Z,39.67
2019-01-23T02:32:01.530Z,39.73
2019-01-23T02:34:32.979Z,42.07
2019-01-23T02:37:05.250Z,45.13
2019-01-23T02:39:37.202Z,46.57
2019-01-23T02:42:09.152Z,45.93
2019-01-23T02:44:40.810Z,43.50
2019-01-23T02:47:12.404Z,41.93
2019-01-23T02:49:45.010Z,42.73
2019-01-23T02:52:16.269Z,45.73
2019-01-23T02:54:47.755Z,45.07
2019-01-23T02:57:19.462Z,45.60
2019-01-23T02:59:50.758Z,47.40
2019-01-23T03:02:22.924Z,47.03
2019-01-23T03:04:55.899Z,47.47
2019-01-23T03:07:28.719Z,46.50
2019-01-23T03:10:00.887Z,41.23
2019-01-23T03:12:32.625Z,41.33
2019-01-23T03:15:04.629Z,47.73
2019-01-23T03:17:35.667Z,41.00
2019-01-23T03:20:08.721Z,44.57
2019-01-23T03:22:40.313Z,43.67
2019-01-23T03:25:13.963Z,45.50
2019-01-23T03:27:45.419Z,46.80
2019-01-23T03:30:26.181Z,37.27
2019-01-23T03:32:58.092Z,42.53
2019-01-23T03:35:30.147Z,44.03
2019-01-23T03:38:02.292Z,43.27
2019-01-23T03:40:33.839Z,41.73
2019-01-23T03:43:06.748Z,39.40
2019-01-23T03:45:37.890Z,38.80
2019-01-23T03:48:10.332Z,41.80
2019-01-23T03:50:46.556Z,41.63
2019-01-23T03:53:18.417Z,42.70
2019-01-23T03:55:50.183Z,41.43
2019-01-23T03:58:22.314Z,41.23
2019-01-23T04:00:55.491Z,39.80
2019-01-23T04:03:27.232Z,39.93
2019-01-23T04:06:00.033Z,37.33
2019-01-23T04:08:31.782Z,41.87
2019-01-23T04:11:03.930Z,45.10
2019-01-23T04:13:35.645Z,42.20
2019-01-23T04:16:07.686Z,41.47
2019-01-23T04:18:39.454Z,45.90
2019-01-23T04:21:11.528Z,46.50
2019-01-23T04:23:43.148Z,37.70
2019-01-23T04:26:14.966Z,40.63
2019-01-23T04:28:47.685Z,46.50
2019-01-23T04:31:19.163Z,44.70
2019-01-23T04:33:50.804Z,44.50
2019-01-23T04:36:22.444Z,40.80
2019-01-23T04:38:55.181Z,40.93
2019-01-23T04:41:26.642Z,40.27
2019-01-23T04:43:58.816Z,42.27
2019-01-23T04:46:31.892Z,37.33
2019-01-23T04:49:03.692Z,40.03
2019-01-23T04:51:47.074Z,45.07
2019-01-23T04:54:19.767Z,40.40
2019-01-23T04:56:50.981Z,40.70
2019-01-23T04:59:22.672Z,40.07
2019-01-23T05:01:54.328Z,38.50
2019-01-23T05:04:26.116Z,38.60
2019-01-23T05:06:58.042Z,39.87
2019-01-23T05:09:29.126Z,40.50
2019-01-23T05:12:00.604Z,36.30
2019-01-23T05:14:32.597Z,39.57
2019-01-23T05:17:04.971Z,37.47
2019-01-23T05:19:37.590Z,43.57
2019-01-23T05:22:09.365Z,42.87
2019-01-23T05:24:41.520Z,39.20
2019-01-23T05:27:14.375Z,41.60
2019-01-23T05:29:54.634Z,40.57
2019-01-23T05:32:20.906Z,47.07
2019-01-23T05:34:53.272Z,48.10
2019-01-23T05:37:26.375Z,44.47
2019-01-23T05:39:58.128Z,47.17
2019-01-23T05:42:30.577Z,45.63
2019-01-23T05:45:02.463Z,47.83
2019-01-23T05:47:35.261Z,40.50
2019-01-23T05:50:09.453Z,42.30
2019-01-23T05:52:42.469Z,44.73
2019-01-23T05:55:15.273Z,41.03
2019-01-23T05:57:46.982Z,40.80
2019-01-23T06:00:21.506Z,43.20
2019-01-23T06:02:53.488Z,43.83
2019-01-23T06:05:25.678Z,42.97
2019-01-23T06:07:57.630Z,43.73
2019-01-23T06:10:29.435Z,40.93
2019-01-23T06:13:01.515Z,42.83
2019-01-23T06:15:33.282Z,42.37
2019-01-23T06:18:06.587Z,47.50
2019-01-23T06:20:39.106Z,46.03
2019-01-23T06:23:11.270Z,43.87
2019-01-23T06:25:42.845Z,41.60
2019-01-23T06:28:15.933Z,41.77
2019-01-23T06:30:48.196Z,45.50
2019-01-23T06:33:20.571Z,40.93
2019-01-23T06:35:51.813Z,45.90
2019-01-23T06:38:27.136Z,44.50
2019-01-23T06:41:00.137Z,41.93
2019-01-23T06:43:33.453Z,42.10
2019-01-23T06:46:05.572Z,45.03
2019-01-23T06:48:38.024Z,41.40
2019-01-23T06:51:09.916Z,42.90
2019-01-23T06:53:41.868Z,41.60
2019-01-23T06:56:13.386Z,40.00
2019-01-23T06:58:44.614Z,43.90
2019-01-23T07:01:16.744Z,39.73
2019-01-23T07:03:48.151Z,39.17
2019-01-23T07:06:19.026Z,46.73
2019-01-23T07:08:51.349Z,49.03
2019-01-23T07:11:23.683Z,49.67
2019-01-23T07:13:55.470Z,54.70
2019-01-23T07:16:27.269Z,55.07
2019-01-23T07:18:58.464Z,50.93
2019-01-23T07:21:29.993Z,45.20
2019-01-23T07:24:01.955Z,50.80
2019-01-23T07:26:33.544Z,47.90
2019-01-23T07:29:06.336Z,42.53
2019-01-23T07:31:38.442Z,43.40
2019-01-23T07:34:11.391Z,43.67
2019-01-23T07:36:43.519Z,45.40
2019-01-23T07:39:16.072Z,41.10
2019-01-23T07:41:46.917Z,40.93
2019-01-23T07:44:18.536Z,42.57
2019-01-23T07:46:50.144Z,45.27
2019-01-23T07:49:22.080Z,46.97
2019-01-23T07:51:53.722Z,44.67
2019-01-23T07:54:25.798Z,44.30
2019-01-23T07:56:58.501Z,47.13
2019-01-23T07:59:30.158Z,47.27
2019-01-23T08:02:02.883Z,49.50
2019-01-23T08:04:35.604Z,47.47
2019-01-23T08:07:07.691Z,47.60
2019-01-23T08:09:40.019Z,49.97
2019-01-23T08:12:12.688Z,45.93
2019-01-23T08:14:46.364Z,41.33
2019-01-23T08:17:19.308Z,38.80
2019-01-23T08:19:51.733Z,39.93
2019-01-23T08:22:23.917Z,45.53
2019-01-23T08:25:03.748Z,42.57
2019-01-23T08:27:35.968Z,40.37
2019-01-23T08:30:08.248Z,45.40
2019-01-23T08:32:40.788Z,44.43
2019-01-23T08:35:13.837Z,43.57
2019-01-23T08:37:46.117Z,42.13
2019-01-23T08:40:18.433Z,44.60
2019-01-23T08:42:51.026Z,41.77
2019-01-23T08:45:24.410Z,42.13
2019-01-23T08:47:56.185Z,38.33
2019-01-23T08:50:34.718Z,40.17
2019-01-23T08:53:07.341Z,39.13
2019-01-23T08:55:41.121Z,37.80
2019-01-23T08:58:12.110Z,35.13
2019-01-23T09:00:45.988Z,38.13
2019-01-23T09:03:17.625Z,35.30
2019-01-23T09:05:49.727Z,33.77
2019-01-23T09:08:22.185Z,37.13
2019-01-23T09:10:54.374Z,39.07
2019-01-23T09:13:25.001Z,33.40
2019-01-23T09:15:55.621Z,36.13
2019-01-23T09:18:26.331Z,29.73
2019-01-23T09:20:57.043Z,33.60
2019-01-23T09:23:27.455Z,35.00
2019-01-23T09:25:57.872Z,36.17
2019-01-23T09:28:28.334Z,31.80
2019-01-23T09:31:15.709Z,30.93
2019-01-23T09:33:52.494Z,29.60
2019-01-23T09:36:51.326Z,30.97
2019-01-23T09:39:52.966Z,30.30
2019-01-23T09:42:59.431Z,31.40
2019-01-23T09:45:57.786Z,31.20
2019-01-23T09:48:57.137Z,31.07
2019-01-23T09:52:08.807Z,35.10
2019-01-23T09:54:39.371Z,40.57
2019-01-23T09:57:09.827Z,42.17
2019-01-23T09:59:40.389Z,46.53
2019-01-23T10:02:11.150Z,44.67
2019-01-23T10:04:41.570Z,43.63
2019-01-23T10:07:11.991Z,39.10
2019-01-23T10:09:42.429Z,37.17
2019-01-23T10:12:12.930Z,34.77
2019-01-23T10:14:43.330Z,36.93
2019-01-23T10:17:13.905Z,29.20
2019-01-23T10:19:44.925Z,29.57
2019-01-23T10:22:15.415Z,27.87
2019-01-23T10:24:46.148Z,27.07
2019-01-23T10:27:16.609Z,23.57
2019-01-23T10:29:47.134Z,23.23
2019-01-23T10:32:17.666Z,22.90
2019-01-23T10:34:47.980Z,25.13
2019-01-23T10:37:19.599Z,26.43
2019-01-23T10:39:50.275Z,25.27
2019-01-23T10:42:20.730Z,24.37
2019-01-23T10:44:51.124Z,26.50
2019-01-23T10:47:21.593Z,24.67
2019-01-23T10:49:52.108Z,23.53
2019-01-23T10:52:22.457Z,23.57
2019-01-23T10:54:53.231Z,25.17
2019-01-23T10:57:23.806Z,23.53
2019-01-23T10:59:54.202Z,24.90
2019-01-23T11:02:24.662Z,25.30
2019-01-23T11:04:55.131Z,23.93
2019-01-23T11:07:25.657Z,25.80
2019-01-23T11:09:56.085Z,25.53
2019-01-23T11:12:26.469Z,24.40
2019-01-23T11:14:59.043Z,27.33
2019-01-23T11:17:29.557Z,27.40
2019-01-23T11:20:00.007Z,26.83
2019-01-23T11:22:30.460Z,26.90
2019-01-23T11:25:01.135Z,28.73
2019-01-23T11:27:32.056Z,25.73
2019-01-23T11:30:02.660Z,29.13
2019-01-23T11:32:33.403Z,25.90
2019-01-23T11:35:04.461Z,29.33
2019-01-23T11:37:35.072Z,29.57
2019-01-23T11:40:11.599Z,33.27
2019-01-23T11:42:42.387Z,31.47
2019-01-23T11:45:13.404Z,33.07
2019-01-23T11:47:44.799Z,33.03
2019-01-23T11:50:21.761Z,30.23
2019-01-23T11:52:52.096Z,34.23
2019-01-23T11:55:23.096Z,34.83
2019-01-23T11:57:54.023Z,35.63
2019-01-23T12:00:29.696Z,32.00
2019-01-23T12:03:00.526Z,33.50
2019-01-23T12:05:31.238Z,33.77
2019-01-23T12:08:02.276Z,33.93
2019-01-23T12:10:33.429Z,33.50
2019-01-23T12:13:04.176Z,34.33
2019-01-23T12:15:40.867Z,34.93
2019-01-23T12:18:07.065Z,32.63
2019-01-23T12:20:37.910Z,34.43
2019-01-23T12:23:08.638Z,33.07
2019-01-23T12:25:39.395Z,33.30
2019-01-23T12:28:10.175Z,35.10
2019-01-23T12:30:40.941Z,35.40
2019-01-23T12:33:11.833Z,33.83
2019-01-23T12:35:42.429Z,32.37
2019-01-23T12:38:13.040Z,32.40
2019-01-23T12:40:43.700Z,34.20
2019-01-23T12:43:14.445Z,35.13
2019-01-23T12:45:45.248Z,32.57
2019-01-23T12:48:16.379Z,34.17
2019-01-23T12:50:48.069Z,34.10
2019-01-23T12:53:19.390Z,33.00
2019-01-23T12:55:49.957Z,36.37
2019-01-23T12:58:20.884Z,33.77
2019-01-23T13:00:51.720Z,33.83
2019-01-23T13:03:22.363Z,33.47
2019-01-23T13:05:53.029Z,33.23
2019-01-23T13:08:23.727Z,31.97
2019-01-23T13:10:54.882Z,34.97
2019-01-23T13:13:25.478Z,34.80
2019-01-23T13:15:56.006Z,36.87
2019-01-23T13:18:26.542Z,35.33
2019-01-23T13:20:57.168Z,34.47
2019-01-23T13:23:27.910Z,33.77
2019-01-23T13:25:58.671Z,34.43
2019-01-23T13:28:29.543Z,36.07
2019-01-23T13:31:00.136Z,32.97
2019-01-23T13:33:30.753Z,34.30
2019-01-23T13:36:01.280Z,34.60
2019-01-23T13:38:31.975Z,33.77
2019-01-23T13:41:02.660Z,35.60
2019-01-23T13:43:33.176Z,34.67
2019-01-23T13:46:04.117Z,34.47
2019-01-23T13:48:34.881Z,33.90
2019-01-23T13:51:05.639Z,34.87
2019-01-23T13:53:36.211Z,35.47
2019-01-23T13:56:06.802Z,35.47
2019-01-23T13:58:41.724Z,35.47
2019-01-23T14:01:09.923Z,36.87
2019-01-23T14:03:40.772Z,38.10
2019-01-23T14:06:11.274Z,36.10
2019-01-23T14:08:42.825Z,34.03
2019-01-23T14:11:13.455Z,36.00
2019-01-23T14:13:43.992Z,37.17
2019-01-23T14:16:14.736Z,35.67
2019-01-23T14:18:45.424Z,35.87
2019-01-23T14:21:16.431Z,36.03
2019-01-23T14:23:47.302Z,37.23
2019-01-23T14:26:17.965Z,37.23
2019-01-23T14:28:49.373Z,36.40
2019-01-23T14:31:20.119Z,38.57
2019-01-23T14:33:50.785Z,37.07
2019-01-23T14:36:21.351Z,36.57
2019-01-23T14:38:52.295Z,38.07
2019-01-23T14:41:23.185Z,34.50
2019-01-23T14:43:54.185Z,36.67
2019-01-23T14:46:25.015Z,36.00
2019-01-23T14:48:55.978Z,38.93
2019-01-23T14:51:26.850Z,36.83
2019-01-23T14:53:57.523Z,36.93
2019-01-23T14:56:28.190Z,37.50
2019-01-23T14:58:59.055Z,38.30
2019-01-23T15:01:29.720Z,37.73
2019-01-23T15:04:00.282Z,38.53
2019-01-23T15:06:30.950Z,38.93
2019-01-23T15:09:01.535Z,41.57
2019-01-23T15:11:32.375Z,38.33
2019-01-23T15:14:03.340Z,39.23
2019-01-23T15:16:34.028Z,37.57
2019-01-23T15:19:05.378Z,40.33
2019-01-23T15:21:38.674Z,39.03
2019-01-23T15:24:10.560Z,39.10
2019-01-23T15:26:41.353Z,40.57
2019-01-23T15:29:12.018Z,39.97
2019-01-23T15:31:42.741Z,40.27
2019-01-23T15:34:13.796Z,41.30
2019-01-23T15:36:50.716Z,40.63
2019-01-23T15:39:21.407Z,41.37
2019-01-23T15:41:52.079Z,41.07
2019-01-23T15:44:22.958Z,42.17
2019-01-23T15:46:53.614Z,40.53
2019-01-23T15:49:24.134Z,40.67
2019-01-23T15:51:54.799Z,43.00
2019-01-23T15:54:25.398Z,39.47
2019-01-23T15:56:56.012Z,40.77
2019-01-23T15:59:26.640Z,38.07
2019-01-23T16:01:57.275Z,42.20
2019-01-23T16:04:27.900Z,38.97
2019-01-23T16:06:58.619Z,40.77
2019-01-23T16:09:29.289Z,41.27
2019-01-23T16:12:01.489Z,42.43
2019-01-23T16:14:32.470Z,40.27
2019-01-23T16:17:03.082Z,40.53
2019-01-23T16:19:34.157Z,42.90
2019-01-23T16:22:05.621Z,44.03
2019-01-23T16:24:36.413Z,45.50
2019-01-23T16:27:07.357Z,45.13
2019-01-23T16:29:38.261Z,45.70
2019-01-23T16:32:08.950Z,42.63
2019-01-23T16:34:39.512Z,44.97
2019-01-23T16:37:11.131Z,44.77
2019-01-23T16:39:41.913Z,45.53
2019-01-23T16:42:12.647Z,42.57
2019-01-23T16:44:43.479Z,45.30
2019-01-23T16:47:14.135Z,50.80
2019-01-23T16:49:44.926Z,48.50
2019-01-23T16:52:15.577Z,48.13
2019-01-23T16:54:46.127Z,56.37
2019-01-23T16:57:16.795Z,53.13
2019-01-23T16:59:47.441Z,53.53
2019-01-23T17:02:18.295Z,48.50
2019-01-23T17:04:49.190Z,57.07
2019-01-23T17:07:19.834Z,79.50
2019-01-23T17:09:50.377Z,82.93
2019-01-23T17:12:20.987Z,71.73
2019-01-23T17:14:51.592Z,76.90
2019-01-23T17:17:22.199Z,82.37
2019-01-23T17:19:52.839Z,81.07
2019-01-23T17:22:23.549Z,85.67
2019-01-23T17:24:54.103Z,80.50
2019-01-23T17:27:24.662Z,78.43
2019-01-23T17:29:55.863Z,75.33
2019-01-23T17:32:26.767Z,80.77
2019-01-23T17:34:57.320Z,88.07
2019-01-23T17:37:28.048Z,83.17
2019-01-23T17:39:58.719Z,97.73
2019-01-23T17:42:29.310Z,92.43
2019-01-23T17:45:00.238Z,99.70
2019-01-23T17:47:31.235Z,100.63
2019-01-23T17:50:01.918Z,97.53
2019-01-23T17:52:34.594Z,80.57
2019-01-23T17:55:08.529Z,80.03
2019-01-23T17:57:39.265Z,71.13
2019-01-23T18:00:13.752Z,75.33
2019-01-23T18:02:44.865Z,59.27
2019-01-23T18:05:15.848Z,57.20
2019-01-23T18:07:46.751Z,54.87
2019-01-23T18:10:18.897Z,63.53
2019-01-23T18:12:49.877Z,56.90
2019-01-23T18:15:22.341Z,58.13
2019-01-23T18:17:53.248Z,57.27
2019-01-23T18:20:28.806Z,62.40
2019-01-23T18:22:59.654Z,59.17
2019-01-23T18:25:30.491Z,61.53
2019-01-23T18:28:01.349Z,60.57
2019-01-23T18:30:45.255Z,65.63
2019-01-23T18:33:18.025Z,68.37
2019-01-23T18:36:09.000Z,76.10
2019-01-23T18:39:03.691Z,67.37
2019-01-23T18:42:23.373Z,71.90
2019-01-23T18:45:31.256Z,62.63
2019-01-23T18:48:37.392Z,60.40
2019-01-23T18:51:36.824Z,58.60
2019-01-23T18:54:07.777Z,68.27
2019-01-23T18:56:38.784Z,78.43
2019-01-23T18:59:09.874Z,65.07
2019-01-23T19:01:40.589Z,94.07
2019-01-23T19:04:11.344Z,76.83
2019-01-23T19:06:42.088Z,107.43
2019-01-23T19:09:13.148Z,68.20
2019-01-23T19:11:43.822Z,71.77
2019-01-23T19:14:14.594Z,63.00
2019-01-23T19:16:45.347Z,50.77
2019-01-23T19:19:15.923Z,54.67
2019-01-23T19:21:46.644Z,49.50
2019-01-23T19:24:17.285Z,54.03
2019-01-23T19:26:48.093Z,50.87
2019-01-23T19:29:18.847Z,53.10
2019-01-23T19:31:49.459Z,52.47
2019-01-23T19:34:20.110Z,54.73
2019-01-23T19:36:50.826Z,55.03
2019-01-23T19:39:22.294Z,83.23
2019-01-23T19:41:53.047Z,63.80
2019-01-23T19:44:23.773Z,61.00
2019-01-23T19:46:55.212Z,94.17
2019-01-23T19:49:26.829Z,56.17
2019-01-23T19:51:57.784Z,85.17
2019-01-23T19:54:28.906Z,80.17
2019-01-23T19:56:59.622Z,70.53
2019-01-23T19:59:30.266Z,56.60
2019-01-23T20:02:01.478Z,88.13
2019-01-23T20:04:32.898Z,94.13
2019-01-23T20:07:03.420Z,55.17
2019-01-23T20:09:35.549Z,60.73
2019-01-23T20:12:06.996Z,62.70
2019-01-23T20:14:37.869Z,66.13
2019-01-23T20:17:08.862Z,62.90
2019-01-23T20:19:40.244Z,82.37
2019-01-23T20:22:11.405Z,74.93
2019-01-23T20:24:42.589Z,88.77
2019-01-23T20:27:14.852Z,63.20
2019-01-23T20:29:46.966Z,79.00
2019-01-23T20:32:19.468Z,51.50
2019-01-23T20:34:50.486Z,83.27
2019-01-23T20:37:23.446Z,97.80
2019-01-23T20:39:54.361Z,77.30
2019-01-23T20:42:24.977Z,76.13
2019-01-23T20:44:55.679Z,68.27
2019-01-23T20:47:26.449Z,68.73
2019-01-23T20:49:57.057Z,108.20
2019-01-23T20:52:29.507Z,99.40
2019-01-23T20:55:00.186Z,89.33
2019-01-23T20:57:30.938Z,71.83
2019-01-23T21:00:01.585Z,59.07
2019-01-23T21:02:32.227Z,65.07
2019-01-23T21:05:02.937Z,58.83
2019-01-23T21:07:33.671Z,69.77
2019-01-23T21:10:04.535Z,77.30
2019-01-23T21:12:35.138Z,66.50
2019-01-23T21:15:06.909Z,60.07
2019-01-23T21:17:38.015Z,62.27
2019-01-23T21:20:08.996Z,78.47
2019-01-23T21:22:39.619Z,109.73
2019-01-23T21:25:10.506Z,102.63
2019-01-23T21:27:41.216Z,76.07
2019-01-23T21:30:15.955Z,59.73
2019-01-23T21:32:46.664Z,97.23
2019-01-23T21:35:17.973Z,63.83
2019-01-23T21:37:48.657Z,77.33
2019-01-23T21:40:21.744Z,92.23
2019-01-23T21:42:52.466Z,89.27
2019-01-23T21:45:23.448Z,67.37
2019-01-23T21:48:00.021Z,105.17
2019-01-23T21:50:30.664Z,91.73
2019-01-23T21:53:04.355Z,109.37
2019-01-23T21:55:35.778Z,94.40
2019-01-23T22:02:00.543Z,124.37
2019-01-23T22:04:31.233Z,110.73
2019-01-23T22:07:01.957Z,110.60
2019-01-23T22:09:32.738Z,119.00
2019-01-23T22:12:03.385Z,118.17
2019-01-23T22:14:34.029Z,79.37
2019-01-23T22:17:04.862Z,75.40
2019-01-23T22:19:35.784Z,68.87
2019-01-23T22:22:08.142Z,76.07
2019-01-23T22:24:39.793Z,63.23
2019-01-23T22:27:11.763Z,60.17
2019-01-23T22:29:43.364Z,57.20
2019-01-23T22:32:14.306Z,77.93
2019-01-23T22:34:46.414Z,81.47
2019-01-23T22:37:18.252Z,88.43
2019-01-23T22:39:50.061Z,87.90
2019-01-23T22:42:21.723Z,89.43
2019-01-23T22:44:53.843Z,63.47
2019-01-23T22:47:25.858Z,86.20
2019-01-23T22:49:57.491Z,62.97
2019-01-23T22:52:28.646Z,52.23
2019-01-23T22:55:01.294Z,46.97
2019-01-23T22:57:33.733Z,29.73
2019-01-23T23:00:08.821Z,32.60
2019-01-23T23:02:40.605Z,25.97
2019-01-23T23:05:14.162Z,22.70
2019-01-23T23:07:46.239Z,14.20
2019-01-23T23:10:18.535Z,11.17
2019-01-23T23:12:49.653Z,9.37
2019-01-23T23:15:21.578Z,10.50
2019-01-23T23:17:54.083Z,9.10
2019-01-23T23:20:25.966Z,7.80
2019-01-23T23:22:57.531Z,7.50
2019-01-23T23:25:29.560Z,7.43
2019-01-23T23:28:01.936Z,6.70
2019-01-23T23:30:33.660Z,6.33
2019-01-23T23:33:04.968Z,5.93
2019-01-23T23:35:36.252Z,5.93
2019-01-23T23:38:08.068Z,5.60
2019-01-23T23:40:40.948Z,4.53
2019-01-23T23:43:13.092Z,4.17
2019-01-23T23:45:44.687Z,3.30
2019-01-23T23:48:16.674Z,3.47
2019-01-23T23:50:48.628Z,2.40
2019-01-23T23:53:20.946Z,2.57
2019-01-23T23:55:53.797Z,2.30
2019-01-23T23:58:26.130Z,2.40
